Time;durP1;ratioP1;P1;durP2;ratioP2;P2;SDS_P1;SDS_P2;PMS_P1;PMS_P2;Temp;Humidity;BMP_temperature;BMP_pressure;BME280_temperature;BME280_humidity;BME280_pressure;Samples;Min_cycle;Max_cycle;Signal;HPM_P1;HPM_P2
2023/04/01 00:00:12;;;;;;;13.90;7.27;;;;;;;13.81;100.00;100302.81;2071343;28;20560;-65
2023/04/01 00:01:13;;;;;;;11.77;7.00;;;;;;;13.80;100.00;100304.84;2071719;28;20265;-65
2023/04/01 00:02:14;;;;;;;11.67;7.00;;;;;;;13.81;100.00;100300.03;2071823;28;20816;-65
2023/04/01 00:03:15;;;;;;;13.33;7.20;;;;;;;13.83;100.00;100308.72;2071808;28;20526;-65
2023/04/01 00:04:15;;;;;;;12.87;6.97;;;;;;;13.85;100.00;100303.44;2073206;28;20184;-65
2023/04/01 00:05:19;;;;;;;14.50;7.37;;;;;;;13.28;100.00;100220.75;2073775;28;20648;-65
2023/04/01 00:06:19;;;;;;;13.63;7.80;;;;;;;13.87;100.00;100306.53;2066023;28;20401;-65
2023/04/01 00:07:20;;;;;;;13.00;7.07;;;;;;;13.88;100.00;100302.53;2072296;28;20962;-65
2023/04/01 00:08:20;;;;;;;14.67;7.57;;;;;;;13.85;100.00;100295.09;2073681;28;20579;-65
2023/04/01 00:09:21;;;;;;;14.63;7.13;;;;;;;13.90;100.00;100302.84;2073433;28;20291;-65
2023/04/01 00:10:21;;;;;;;10.70;6.63;;;;;;;13.92;100.00;100301.13;2073896;28;20563;-65
2023/04/01 00:11:22;;;;;;;11.87;7.03;;;;;;;13.94;100.00;100306.25;2076142;28;20186;-65
2023/04/01 00:12:24;;;;;;;11.80;7.53;;;;;;;13.92;100.00;100300.34;2080438;28;20189;-65
2023/04/01 00:13:26;;;;;;;13.83;7.53;;;;;;;13.75;100.00;100265.69;2073388;28;20244;-65
2023/04/01 00:14:26;;;;;;;14.50;7.67;;;;;;;13.92;100.00;100289.22;2073955;28;20410;-65
2023/04/01 00:15:27;;;;;;;12.37;7.20;;;;;;;13.95;100.00;100296.66;2073274;28;20490;-65
2023/04/01 00:16:27;;;;;;;12.97;7.97;;;;;;;13.85;100.00;100272.81;2073220;28;20655;-65
2023/04/01 00:17:28;;;;;;;13.00;7.40;;;;;;;13.98;100.00;100284.59;2073411;28;20306;-65
2023/04/01 00:18:28;;;;;;;12.70;7.00;;;;;;;13.97;100.00;100294.94;2073692;28;20270;-65
2023/04/01 00:19:29;;;;;;;13.13;7.57;;;;;;;13.89;100.00;100267.88;2073753;28;20190;-65
2023/04/01 00:20:30;;;;;;;13.03;7.53;;;;;;;13.65;100.00;100252.97;2073505;28;20620;-65
2023/04/01 00:21:30;;;;;;;13.33;7.23;;;;;;;13.25;100.00;100169.56;2073316;28;20205;-65
2023/04/01 00:22:31;;;;;;;15.80;7.63;;;;;;;13.03;100.00;100140.31;2073881;28;20425;-65
2023/04/01 00:23:31;;;;;;;12.33;7.90;;;;;;;13.54;100.00;100213.69;2073776;28;20198;-65
2023/04/01 00:24:32;;;;;;;10.70;8.03;;;;;;;13.77;100.00;100257.63;2073628;28;20619;-65
2023/04/01 00:25:32;;;;;;;16.17;9.17;;;;;;;13.95;100.00;100283.50;2073287;28;20197;-65
2023/04/01 00:26:33;;;;;;;13.50;8.40;;;;;;;13.96;100.00;100278.69;2070412;28;20597;-65
2023/04/01 00:27:33;;;;;;;10.40;8.10;;;;;;;13.95;100.00;100289.09;2073335;28;20295;-65
2023/04/01 00:28:34;;;;;;;13.23;8.63;;;;;;;13.13;100.00;100153.00;2073124;28;20185;-65
2023/04/01 00:29:35;;;;;;;10.97;8.30;;;;;;;13.97;100.00;100278.25;2070158;28;20182;-65
2023/04/01 00:30:36;;;;;;;15.03;8.80;;;;;;;13.95;100.00;100277.94;2073800;28;20426;-65
2023/04/01 00:31:37;;;;;;;14.53;8.83;;;;;;;14.00;100.00;100273.75;2073179;28;20290;-65
2023/04/01 00:32:37;;;;;;;12.23;8.97;;;;;;;14.01;100.00;100276.09;2067205;28;20447;-65
2023/04/01 00:33:39;;;;;;;17.77;9.97;;;;;;;13.69;100.00;100234.88;2065459;28;20194;-65
2023/04/01 00:34:40;;;;;;;13.43;9.23;;;;;;;14.04;100.00;100274.38;2067659;28;20197;-65
2023/04/01 00:35:41;;;;;;;14.57;9.53;;;;;;;14.01;100.00;100267.72;2072258;28;20462;-65
2023/04/01 00:36:42;;;;;;;16.13;9.87;;;;;;;14.05;100.00;100276.72;2073724;28;20409;-65
2023/04/01 00:37:42;;;;;;;15.50;9.70;;;;;;;14.02;100.00;100263.69;2072639;28;20190;-65
2023/04/01 00:38:43;;;;;;;14.37;10.07;;;;;;;14.08;100.00;100272.97;2072631;28;20576;-65
2023/04/01 00:39:44;;;;;;;17.43;9.60;;;;;;;13.78;100.00;100225.78;2068739;28;20288;-65
2023/04/01 00:40:45;;;;;;;12.97;9.03;;;;;;;14.10;100.00;100281.63;2067928;28;20186;-65
2023/04/01 00:41:46;;;;;;;12.73;9.90;;;;;;;14.09;100.00;100280.09;2072709;28;20496;-65
2023/04/01 00:42:47;;;;;;;13.03;10.23;;;;;;;14.09;100.00;100273.75;2073635;28;20463;-65
2023/04/01 00:43:49;;;;;;;14.73;10.30;;;;;;;13.95;100.00;100247.28;2080427;28;20225;-65
2023/04/01 00:44:54;;;;;;;14.87;10.10;;;;;;;14.13;100.00;100269.56;2080299;28;20198;-65
2023/04/01 00:45:55;;;;;;;15.07;10.40;;;;;;;14.12;100.00;100265.25;2074896;28;20864;-65
2023/04/01 00:46:56;;;;;;;13.87;9.73;;;;;;;14.12;100.00;100267.25;2076525;28;20522;-65
2023/04/01 00:48:01;;;;;;;15.70;10.37;;;;;;;14.13;100.00;100272.34;2078304;28;20175;-65
2023/04/01 00:49:02;;;;;;;15.60;10.60;;;;;;;14.10;100.00;100270.50;2073990;28;20172;-65
2023/04/01 00:50:03;;;;;;;15.90;10.27;;;;;;;14.06;100.00;100267.09;2081875;28;20416;-65
2023/04/01 00:51:11;;;;;;;13.93;10.07;;;;;;;14.05;100.00;100271.13;2081005;28;20448;-65
2023/04/01 00:52:16;;;;;;;16.03;10.10;;;;;;;14.05;100.00;100268.34;2080742;28;20667;-65
2023/04/01 00:53:19;;;;;;;17.87;10.33;;;;;;;14.03;100.00;100275.63;2074701;28;20974;-65
2023/04/01 00:54:21;;;;;;;18.23;10.87;;;;;;;14.04;100.00;100271.59;2072844;28;20464;-65
2023/04/01 00:55:23;;;;;;;26.57;11.83;;;;;;;13.92;100.00;100255.78;2075516;28;20792;-65
2023/04/01 00:56:49;;;;;;;17.57;11.50;;;;;;;14.03;100.00;100272.84;2079954;28;20423;-65
2023/04/01 00:57:52;;;;;;;16.50;9.30;;;;;;;14.04;100.00;100282.75;2080163;28;20474;-65
2023/04/01 00:59:01;;;;;;;16.77;10.03;;;;;;;14.02;100.00;100271.25;2080384;28;20498;-65
2023/04/01 01:00:07;;;;;;;13.90;10.30;;;;;;;14.03;100.00;100284.75;2080498;28;20417;-65
2023/04/01 01:01:09;;;;;;;14.03;10.27;;;;;;;14.04;100.00;100263.25;2079173;28;20419;-65
2023/04/01 01:02:12;;;;;;;14.57;10.23;;;;;;;14.03;100.00;100267.25;2073104;28;20439;-65
2023/04/01 01:03:12;;;;;;;12.70;9.07;;;;;;;14.04;100.00;100263.25;2080398;28;20480;-65
2023/04/01 01:04:25;;;;;;;11.83;8.47;;;;;;;13.55;100.00;100198.53;2080585;28;20454;-65
2023/04/01 01:05:51;;;;;;;12.83;8.80;;;;;;;14.07;100.00;100262.28;2080375;28;20677;-65
2023/04/01 01:07:07;;;;;;;16.87;8.80;;;;;;;14.04;100.00;100258.41;2079839;28;20883;-65
2023/04/01 01:08:23;;;;;;;11.77;8.90;;;;;;;14.01;100.00;100266.94;2073232;28;20421;-65
2023/04/01 01:10:03;;;;;;;13.67;8.63;;;;;;;14.02;100.00;100260.13;2081768;28;20399;-65
2023/04/01 01:11:07;;;;;;;15.43;8.73;;;;;;;13.97;100.00;100257.94;2070944;28;20887;-65
2023/04/01 01:12:11;;;;;;;12.70;8.93;;;;;;;13.91;100.00;100249.47;2081482;28;20424;-65
2023/04/01 01:13:20;;;;;;;12.90;8.97;;;;;;;13.91;100.00;100249.47;2081433;28;20994;-65
2023/04/01 01:14:28;;;;;;;12.97;8.20;;;;;;;13.89;100.00;100246.34;2081698;28;20734;-65
2023/04/01 01:15:34;;;;;;;15.47;8.80;;;;;;;13.90;100.00;100250.69;2080615;28;20477;-65
2023/04/01 01:16:43;;;;;;;12.97;9.57;;;;;;;13.45;100.00;100172.69;2081375;28;20419;-65
2023/04/01 01:17:46;;;;;;;12.43;8.90;;;;;;;13.90;100.00;100244.34;2081239;28;20418;-65
2023/04/01 01:18:49;;;;;;;12.37;8.70;;;;;;;13.90;100.00;100247.91;2081281;28;20419;-65
2023/04/01 01:20:22;;;;;;;16.10;9.53;;;;;;;13.90;100.00;100239.56;2081808;28;20768;-65
2023/04/01 01:21:46;;;;;;;10.77;8.33;;;;;;;13.90;100.00;100242.34;2076212;28;20493;-65
2023/04/01 01:23:02;;;;;;;15.00;9.07;;;;;;;13.92;100.00;100245.44;2078595;28;20454;-65
2023/04/01 01:24:29;;;;;;;12.33;8.60;;;;;;;13.90;100.00;100249.91;2081502;28;20438;-65
2023/04/01 01:25:58;;;;;;;13.43;9.83;;;;;;;13.87;100.00;100239.69;2081196;28;20395;-65
2023/04/01 01:27:10;;;;;;;11.73;9.13;;;;;;;13.86;100.00;100238.16;2075164;28;20424;-65
2023/04/01 01:28:13;;;;;;;15.60;9.83;;;;;;;13.84;100.00;100241.38;2081253;28;20418;-66
2023/04/01 01:29:20;;;;;;;14.87;10.00;;;;;;;13.85;100.00;100239.38;2081224;28;20423;-65
2023/04/01 01:31:07;;;;;;;14.13;10.00;;;;;;;13.84;100.00;100235.81;2081368;28;20449;-65
2023/04/01 01:32:10;;;;;;;15.43;10.90;;;;;;;13.84;100.00;100233.03;2064377;28;20487;-65
2023/04/01 01:33:35;;;;;;;16.90;10.90;;;;;;;13.80;100.00;100224.09;2078791;28;20438;-65
2023/04/01 01:34:52;;;;;;;18.33;11.30;;;;;;;13.26;100.00;100140.50;2081444;28;20845;-65
2023/04/01 01:35:55;;;;;;;17.23;11.47;;;;;;;13.85;100.00;100231.03;2072811;28;20467;-65
2023/04/01 01:37:00;;;;;;;14.83;11.57;;;;;;;13.84;100.00;100232.28;2081346;28;20940;-65
2023/04/01 01:38:05;;;;;;;15.20;11.60;;;;;;;13.78;100.00;100206.28;2080987;28;20446;-65
2023/04/01 01:39:09;;;;;;;16.20;12.37;;;;;;;13.83;100.00;100205.66;2081551;28;20537;-65
2023/04/01 01:40:12;;;;;;;20.87;12.03;;;;;;;13.82;100.00;100223.59;2081130;28;20482;-65
2023/04/01 01:41:16;;;;;;;18.97;12.77;;;;;;;13.61;100.00;100174.41;2081459;28;20508;-65
2023/04/01 01:42:20;;;;;;;17.33;12.53;;;;;;;13.88;100.00;100214.16;2081199;28;20970;-65
2023/04/01 01:43:29;;;;;;;18.03;12.10;;;;;;;13.92;100.00;100214.00;2081035;28;20481;-65
2023/04/01 01:44:32;;;;;;;17.20;13.10;;;;;;;13.87;100.00;100206.25;2081424;28;20447;-65
2023/04/01 01:45:38;;;;;;;18.77;12.57;;;;;;;13.92;100.00;100212.00;2080909;28;20509;-65
2023/04/01 01:46:40;;;;;;;18.17;12.87;;;;;;;13.90;100.00;100219.28;2081243;28;20485;-65
2023/04/01 01:47:42;;;;;;;20.80;13.80;;;;;;;13.16;100.00;100122.25;2080924;28;20497;-65
2023/04/01 01:48:45;;;;;;;17.93;13.60;;;;;;;13.79;100.00;100200.22;2081203;28;20439;-65
2023/04/01 01:49:45;;;;;;;17.13;14.13;;;;;;;13.86;100.00;100210.28;2081317;28;20415;-65
2023/04/01 01:50:48;;;;;;;20.93;15.33;;;;;;;13.90;100.00;100206.13;2081442;28;20436;-65
2023/04/01 01:51:48;;;;;;;20.33;15.20;;;;;;;13.92;100.00;100211.22;2081595;28;20197;-65
2023/04/01 01:52:49;;;;;;;23.50;15.77;;;;;;;13.94;100.00;100203.94;2081282;28;20514;-65
2023/04/01 01:53:50;;;;;;;21.83;15.77;;;;;;;13.98;100.00;100203.81;2081318;28;20259;-65
2023/04/01 01:54:52;;;;;;;20.03;15.57;;;;;;;13.97;100.00;100199.44;2085109;28;20272;-65
2023/04/01 01:55:53;;;;;;;23.83;15.93;;;;;;;13.97;100.00;100197.44;2077744;28;20240;-65
2023/04/01 01:57:04;;;;;;;22.07;15.80;;;;;;;14.01;100.00;100191.72;2078171;28;20409;-65
2023/04/01 01:58:15;;;;;;;20.97;15.50;;;;;;;14.00;100.00;100192.97;2080843;28;20161;-65
2023/04/01 01:59:19;;;;;;;20.60;15.50;;;;;;;13.98;100.00;100196.22;2081237;28;20506;-65
2023/04/01 02:00:21;;;;;;;20.67;15.77;;;;;;;13.94;100.00;100181.66;2081123;28;20530;-65
2023/04/01 02:01:27;;;;;;;19.47;15.83;;;;;;;14.03;100.00;100183.69;2081096;28;20949;-65
2023/04/01 02:02:31;;;;;;;21.13;15.20;;;;;;;14.01;100.00;100181.34;2081211;28;20433;-65
2023/04/01 02:03:36;;;;;;;22.53;16.13;;;;;;;14.07;100.00;100185.06;2081108;28;20452;-65
2023/04/01 02:04:40;;;;;;;21.67;14.93;;;;;;;14.09;100.00;100182.56;2081446;28;20447;-65
2023/04/01 02:05:41;;;;;;;21.80;15.43;;;;;;;14.09;100.00;100185.34;2072825;28;20629;-65
2023/04/01 02:06:52;;;;;;;21.13;15.43;;;;;;;14.11;100.00;100184.91;2080285;28;20492;-65
2023/04/01 02:08:03;;;;;;;19.73;15.47;;;;;;;14.12;100.00;100181.66;2080900;28;20428;-65
2023/04/01 02:09:07;;;;;;;25.37;15.07;;;;;;;14.11;100.00;100182.91;2081187;28;20941;-65
2023/04/01 02:10:08;;;;;;;21.77;15.47;;;;;;;14.12;100.00;100184.44;2080896;28;20435;-65
2023/04/01 02:11:11;;;;;;;19.67;15.17;;;;;;;14.13;100.00;100176.84;2081250;28;20470;-65
2023/04/01 02:12:16;;;;;;;22.43;16.27;;;;;;;14.15;100.00;100179.94;2081185;28;20880;-65
2023/04/01 02:13:26;;;;;;;22.50;15.90;;;;;;;14.15;100.00;100180.69;2081157;28;20540;-65
2023/04/01 02:14:36;;;;;;;25.27;16.67;;;;;;;14.07;100.00;100170.34;2081120;28;20438;-65
2023/04/01 02:15:42;;;;;;;21.63;16.47;;;;;;;14.17;100.00;100188.59;2080571;28;20461;-65
2023/04/01 02:16:49;;;;;;;19.60;16.07;;;;;;;14.19;100.00;100192.50;2081054;28;20515;-65
2023/04/01 02:17:51;;;;;;;21.07;16.77;;;;;;;14.19;100.00;100186.94;2080794;28;20443;-65
2023/04/01 02:18:55;;;;;;;24.23;16.83;;;;;;;14.14;100.00;100193.09;2080888;28;20433;-65
2023/04/01 02:20:12;;;;;;;22.40;17.50;;;;;;;14.16;100.00;100192.63;2081146;28;20566;-65
2023/04/01 02:21:14;;;;;;;21.40;16.80;;;;;;;14.18;100.00;100195.72;2081138;28;20428;-65
2023/04/01 02:22:20;;;;;;;21.53;16.60;;;;;;;14.12;100.00;100195.59;2080776;28;20484;-65
2023/04/01 02:23:20;;;;;;;20.07;17.00;;;;;;;13.75;100.00;100138.38;2080986;28;20889;-65
2023/04/01 02:24:23;;;;;;;21.93;16.87;;;;;;;14.09;100.00;100204.09;2080923;28;20800;-65
2023/04/01 02:25:29;;;;;;;22.87;17.63;;;;;;;13.15;100.00;100064.28;2080357;28;20245;-65
2023/04/01 02:26:30;;;;;;;20.20;16.70;;;;;;;13.99;100.00;100211.69;2071772;28;20466;-65
2023/04/01 02:27:31;;;;;;;21.90;16.77;;;;;;;13.98;100.00;100210.13;2080517;28;20458;-65
2023/04/01 02:28:32;;;;;;;21.43;17.23;;;;;;;13.77;100.00;100194.38;2080437;28;20801;-65
2023/04/01 02:29:33;;;;;;;24.03;18.00;;;;;;;13.79;100.00;100200.22;2080792;28;20506;-65
2023/04/01 02:30:36;;;;;;;21.50;17.23;;;;;;;13.79;100.00;100197.44;2080716;28;20941;-65
2023/04/01 02:31:37;;;;;;;23.17;17.27;;;;;;;13.82;100.00;100209.66;2080732;28;20195;-65
2023/04/01 02:32:39;;;;;;;22.03;16.47;;;;;;;13.78;100.00;100200.72;2080547;28;20961;-65
2023/04/01 02:33:39;;;;;;;22.47;16.33;;;;;;;13.85;100.00;100209.53;2080892;28;20662;-65
2023/04/01 02:34:41;;;;;;;20.87;16.73;;;;;;;13.85;100.00;100209.53;2080493;28;20899;-65
2023/04/01 02:35:41;;;;;;;22.33;16.53;;;;;;;13.84;100.00;100210.00;2080036;28;20185;-65
2023/04/01 02:36:42;;;;;;;20.00;16.53;;;;;;;13.83;100.00;100212.00;2072766;28;20454;-65
2023/04/01 02:37:46;;;;;;;24.57;16.50;;;;;;;13.86;100.00;100215.88;2079457;28;20193;-65
2023/04/01 02:38:49;;;;;;;18.70;16.13;;;;;;;13.92;100.00;100214.00;2080603;28;20659;-65
2023/04/01 02:39:49;;;;;;;20.73;16.53;;;;;;;13.90;100.00;100208.91;2080689;28;20837;-65
2023/04/01 02:40:57;;;;;;;21.50;15.90;;;;;;;13.87;100.00;100215.41;2076181;28;20477;-65
2023/04/01 02:41:57;;;;;;;21.47;16.23;;;;;;;13.94;100.00;100212.31;2076878;28;20204;-65
2023/04/01 02:42:58;;;;;;;24.50;15.60;;;;;;;13.77;100.00;100205.50;2080408;28;20432;-65
2023/04/01 02:43:59;;;;;;;20.17;15.97;;;;;;;13.86;100.00;100216.66;2080529;28;20170;-65
2023/04/01 02:45:00;;;;;;;21.87;15.97;;;;;;;13.71;100.00;100201.00;2080784;28;20665;-65
2023/04/01 02:46:01;;;;;;;24.27;16.20;;;;;;;13.84;100.00;100210.00;2080644;28;20223;-65
2023/04/01 02:47:02;;;;;;;26.87;16.63;;;;;;;13.14;100.00;100104.47;2081061;28;20246;-65
2023/04/01 02:48:02;;;;;;;25.80;16.07;;;;;;;13.86;100.00;100205.50;2080463;28;20485;-65
2023/04/01 02:49:03;;;;;;;23.27;15.97;;;;;;;13.21;100.00;100115.31;2080838;28;20257;-65
2023/04/01 02:50:05;;;;;;;22.67;15.33;;;;;;;13.86;100.00;100207.50;2080614;28;20201;-65
2023/04/01 02:51:06;;;;;;;23.27;15.73;;;;;;;13.78;100.00;100189.56;2080670;28;20197;-65
2023/04/01 02:52:06;;;;;;;21.83;15.50;;;;;;;13.88;100.00;100211.38;2080412;28;20516;-65
2023/04/01 02:53:06;;;;;;;18.10;13.67;;;;;;;13.89;100.00;100201.78;2080733;28;20184;-65
2023/04/01 02:54:07;;;;;;;20.37;15.43;;;;;;;13.82;100.00;100199.31;2080478;28;20183;-65
2023/04/01 02:55:08;;;;;;;20.10;14.50;;;;;;;13.89;100.00;100204.56;2086944;28;20188;-65
2023/04/01 02:56:08;;;;;;;19.00;14.57;;;;;;;13.89;100.00;100203.81;2084395;28;20196;-65
2023/04/01 02:57:09;;;;;;;18.83;13.77;;;;;;;13.91;100.00;100206.88;2076244;28;20199;-65
2023/04/01 02:58:09;;;;;;;16.37;13.57;;;;;;;12.94;100.00;100056.81;2077456;28;20201;-65
2023/04/01 02:59:10;;;;;;;19.03;13.37;;;;;;;13.94;100.00;100192.81;2080749;28;20190;-65
2023/04/01 03:00:11;;;;;;;17.03;12.97;;;;;;;13.95;100.00;100199.16;2080411;28;20872;-65
2023/04/01 03:01:12;;;;;;;19.17;13.90;;;;;;;13.98;100.00;100193.41;2071715;28;20232;-65
2023/04/01 03:02:12;;;;;;;16.90;13.27;;;;;;;14.00;100.00;100193.75;2070858;28;20416;-65
2023/04/01 03:03:13;;;;;;;15.07;13.13;;;;;;;14.03;100.00;100192.03;2072865;28;20674;-65
2023/04/01 03:04:14;;;;;;;15.67;13.33;;;;;;;13.90;100.00;100172.72;2080148;28;20183;-65
2023/04/01 03:05:14;;;;;;;17.67;12.93;;;;;;;14.01;100.00;100186.94;2080125;28;20238;-65
2023/04/01 03:06:16;;;;;;;17.57;13.77;;;;;;;13.33;100.00;100076.19;2079905;28;20208;-65
2023/04/01 03:07:16;;;;;;;15.50;12.80;;;;;;;14.09;100.00;100184.59;2079375;28;20194;-65
2023/04/01 03:08:17;;;;;;;16.33;13.20;;;;;;;14.07;100.00;100178.72;2080771;28;20924;-65
2023/04/01 03:09:17;;;;;;;18.23;12.97;;;;;;;14.08;100.00;100186.59;2080460;28;20175;-65
2023/04/01 03:10:17;;;;;;;17.10;13.23;;;;;;;14.07;100.00;100187.06;2080301;28;20178;-65
2023/04/01 03:11:18;;;;;;;18.53;13.80;;;;;;;14.13;100.00;100185.97;2080827;28;20182;-65
2023/04/01 03:12:18;;;;;;;15.40;13.30;;;;;;;13.93;100.00;100168.22;2080674;28;20648;-65
2023/04/01 03:13:19;;;;;;;16.60;13.17;;;;;;;14.07;100.00;100187.84;2080469;28;20273;-65
2023/04/01 03:14:20;;;;;;;16.67;12.73;;;;;;;14.13;100.00;100182.41;2080214;28;20195;-65
2023/04/01 03:15:20;;;;;;;18.53;13.13;;;;;;;14.06;100.00;100163.22;2080188;28;20605;-65
2023/04/01 03:16:21;;;;;;;15.53;12.47;;;;;;;14.16;100.00;100179.47;2080386;28;20198;-65
2023/04/01 03:17:21;;;;;;;17.47;13.00;;;;;;;14.13;100.00;100171.25;2080311;28;20549;-65
2023/04/01 03:18:22;;;;;;;17.90;12.77;;;;;;;14.19;100.00;100175.78;2080560;28;20187;-65
2023/04/01 03:19:22;;;;;;;17.53;13.03;;;;;;;14.19;100.00;100178.56;2080111;28;20187;-65
2023/04/01 03:20:22;;;;;;;17.50;13.87;;;;;;;14.17;100.00;100172.66;2080823;28;20563;-65
2023/04/01 03:21:24;;;;;;;17.07;13.57;;;;;;;14.11;100.00;100171.75;2080268;28;20253;-65
2023/04/01 03:22:24;;;;;;;18.43;12.80;;;;;;;14.15;100.00;100174.38;2080165;28;20280;-65
2023/04/01 03:23:25;;;;;;;15.60;13.53;;;;;;;14.13;100.00;100166.47;2080493;28;20450;-65
2023/04/01 03:24:25;;;;;;;15.77;13.33;;;;;;;14.19;100.00;100170.22;2080365;28;20198;-65
2023/04/01 03:25:28;;;;;;;19.67;13.47;;;;;;;14.14;100.00;100165.22;2080224;28;20210;-65
2023/04/01 03:26:28;;;;;;;18.93;13.70;;;;;;;14.04;100.00;100169.28;2080183;28;20215;-65
2023/04/01 03:27:29;;;;;;;20.13;13.97;;;;;;;13.94;100.00;100167.72;2072599;28;20449;-65
2023/04/01 03:28:30;;;;;;;18.40;13.80;;;;;;;13.94;100.00;100164.94;2080684;28;20180;-65
2023/04/01 03:29:30;;;;;;;20.03;13.60;;;;;;;13.95;100.00;100165.72;2080479;28;20261;-65
2023/04/01 03:32:27;;;;;;;17.53;13.40;;;;;;;13.82;100.00;100167.88;2075885;28;20201;-65
2023/04/01 03:33:28;;;;;;;19.90;14.60;;;;;;;13.83;100.00;100172.25;2079993;28;20418;-65
2023/04/01 03:34:28;;;;;;;17.07;13.70;;;;;;;13.85;100.00;100164.97;2080898;28;20204;-65
2023/04/01 03:35:28;;;;;;;18.53;13.70;;;;;;;13.84;100.00;100160.63;2074945;28;20271;-65
2023/04/01 03:36:29;;;;;;;15.93;13.73;;;;;;;13.92;100.00;100167.44;2080030;28;20197;-65
2023/04/01 03:37:29;;;;;;;20.03;13.80;;;;;;;13.74;100.00;100144.41;2079883;28;20282;-65
2023/04/01 03:38:30;;;;;;;14.77;9.17;;;;;;;13.83;100.00;100159.06;2080014;28;20207;-65
2023/04/01 03:39:30;;;;;;;15.70;12.07;;;;;;;13.90;100.00;100160.78;2080136;28;20192;-65
2023/04/01 03:40:32;;;;;;;16.93;11.23;;;;;;;13.05;100.00;100016.22;2079902;28;20265;-65
2023/04/01 03:41:36;;;;;;;16.80;12.03;;;;;;;13.98;100.00;100162.78;2079997;28;20321;-65
2023/04/01 03:42:37;;;;;;;15.77;11.97;;;;;;;14.03;100.00;100156.59;2079728;28;20846;-65
2023/04/01 03:43:37;;;;;;;14.63;12.47;;;;;;;14.06;100.00;100155.66;2080427;28;20481;-65
2023/04/01 03:44:38;;;;;;;16.53;11.87;;;;;;;13.99;100.00;100164.31;2080050;28;20607;-65
2023/04/01 03:45:49;;;;;;;17.13;12.33;;;;;;;13.99;100.00;100158.75;2079610;28;20225;-65
2023/04/01 03:46:50;;;;;;;17.43;12.90;;;;;;;14.06;100.00;100166.81;2079954;28;20211;-65
2023/04/01 03:47:51;;;;;;;17.90;12.90;;;;;;;14.12;100.00;100158.56;2074682;28;20451;-65
2023/04/01 03:48:51;;;;;;;16.60;12.70;;;;;;;14.08;100.00;100158.75;2077902;28;20327;-65
2023/04/01 03:49:52;;;;;;;17.47;13.27;;;;;;;13.99;100.00;100163.56;2079945;28;20621;-65
2023/04/01 03:50:52;;;;;;;17.50;12.07;;;;;;;14.02;100.00;100157.81;2079856;28;20260;-65
2023/04/01 03:51:53;;;;;;;18.90;12.37;;;;;;;14.00;100.00;100165.09;2080272;28;20280;-65
2023/04/01 03:52:53;;;;;;;17.30;12.90;;;;;;;13.97;100.00;100157.66;2073487;28;20228;-65
2023/04/01 03:53:54;;;;;;;16.17;12.20;;;;;;;13.97;100.00;100154.88;2079889;28;20189;-65
2023/04/01 03:54:55;;;;;;;17.57;12.87;;;;;;;13.40;100.00;100069.53;2083850;28;20196;-65
2023/04/01 03:55:55;;;;;;;17.80;11.90;;;;;;;14.02;100.00;100159.81;2082181;28;20198;-65
2023/04/01 03:56:57;;;;;;;16.57;12.47;;;;;;;13.91;100.00;100151.19;2079835;28;20193;-65
2023/04/01 03:57:58;;;;;;;15.73;11.77;;;;;;;13.98;100.00;100162.78;2079964;28;20184;-65
2023/04/01 03:59:02;;;;;;;16.30;12.20;;;;;;;13.92;100.00;100167.44;2079165;28;20409;-65
2023/04/01 04:00:03;;;;;;;16.63;11.63;;;;;;;13.81;100.00;100139.28;2080156;28;20293;-65
2023/04/01 04:01:04;;;;;;;15.20;11.23;;;;;;;13.93;100.00;100155.03;2080396;28;20417;-65
2023/04/01 04:02:05;;;;;;;15.53;11.10;;;;;;;13.21;100.00;100048.53;2088713;28;20177;-65
2023/04/01 04:03:06;;;;;;;15.57;10.90;;;;;;;13.92;100.00;100145.16;2080639;28;20448;-65
2023/04/01 04:04:07;;;;;;;17.73;11.80;;;;;;;13.83;100.00;100131.22;2075163;28;20484;-65
2023/04/01 04:05:07;;;;;;;14.27;11.17;;;;;;;13.93;100.00;100145.94;2077497;28;20200;-65
2023/04/01 04:06:11;;;;;;;16.73;12.10;;;;;;;13.99;100.00;100144.06;2080811;28;20471;-65
2023/04/01 04:07:12;;;;;;;16.07;11.20;;;;;;;13.50;100.00;100059.97;2083755;28;20261;-65
2023/04/01 04:08:12;;;;;;;16.27;11.60;;;;;;;14.08;100.00;100138.47;2088019;28;20470;-65
2023/04/01 04:09:13;;;;;;;17.03;11.23;;;;;;;13.40;100.00;100034.16;2080319;28;20223;-65
2023/04/01 04:10:14;;;;;;;16.17;11.03;;;;;;;14.13;100.00;100138.59;2079864;28;20618;-65
2023/04/01 04:11:15;;;;;;;15.60;11.17;;;;;;;14.15;100.00;100138.16;2080157;28;20212;-65
2023/04/01 04:12:15;;;;;;;18.20;11.60;;;;;;;14.17;100.00;100139.22;2079865;28;20200;-65
2023/04/01 04:13:16;;;;;;;15.53;11.17;;;;;;;13.47;100.00;100022.69;2080191;28;20453;-65
2023/04/01 04:14:16;;;;;;;14.27;10.53;;;;;;;14.24;100.00;100146.53;2080098;28;20204;-65
2023/04/01 04:15:17;;;;;;;13.53;10.97;;;;;;;13.59;100.00;100043.25;2079761;28;20193;-65
2023/04/01 04:16:18;;;;;;;13.97;11.30;;;;;;;13.63;100.00;100052.22;2077923;28;20207;-65
2023/04/01 04:17:18;;;;;;;15.00;11.40;;;;;;;14.28;100.00;100150.69;2073492;28;20667;-65
2023/04/01 04:18:19;;;;;;;14.10;10.70;;;;;;;13.23;100.00;99985.59;2080032;28;20215;-65
2023/04/01 04:19:19;;;;;;;14.33;11.80;;;;;;;14.26;100.00;100144.03;2080182;28;20204;-65
2023/04/01 04:20:20;;;;;;;14.40;10.67;;;;;;;14.29;100.00;100143.09;2079953;28;20204;-65
2023/04/01 04:21:20;;;;;;;13.53;10.43;;;;;;;14.31;100.00;100140.59;2079858;28;20196;-65
2023/04/01 04:22:21;;;;;;;14.80;10.57;;;;;;;14.32;100.00;100142.94;2080149;28;20196;-65
2023/04/01 04:23:21;;;;;;;13.67;10.73;;;;;;;14.32;100.00;100137.34;2079531;28;20235;-65
2023/04/01 04:24:22;;;;;;;15.60;10.50;;;;;;;14.22;100.00;100126.69;2076336;28;20191;-65
2023/04/01 04:25:22;;;;;;;12.80;9.83;;;;;;;14.26;100.00;100144.03;2073655;28;20189;-65
2023/04/01 04:26:22;;;;;;;16.87;9.90;;;;;;;14.27;100.00;100145.56;2079710;28;20196;-65
2023/04/01 04:27:23;;;;;;;14.63;10.37;;;;;;;14.30;100.00;100139.81;2079576;28;20264;-65
2023/04/01 04:28:24;;;;;;;15.47;10.13;;;;;;;14.36;100.00;100140.75;2079195;28;20188;-65
2023/04/01 04:29:24;;;;;;;13.50;10.20;;;;;;;14.31;100.00;100138.59;2065450;28;20734;-65
2023/04/01 04:30:25;;;;;;;13.60;10.20;;;;;;;14.33;100.00;100140.91;2068946;28;20906;-65
2023/04/01 04:31:26;;;;;;;12.13;10.50;;;;;;;13.56;100.00;100031.03;2079688;28;20690;-65
2023/04/01 04:32:27;;;;;;;14.43;9.40;;;;;;;13.79;100.00;100088.09;2076249;28;20202;-65
2023/04/01 04:33:28;;;;;;;14.10;10.87;;;;;;;14.23;100.00;100140.16;2073710;28;20445;-65
2023/04/01 04:34:28;;;;;;;16.23;10.87;;;;;;;14.21;100.00;100130.72;2079749;28;20208;-65
2023/04/01 04:35:28;;;;;;;15.23;10.63;;;;;;;14.31;100.00;100140.59;2071741;28;20211;-65
2023/04/01 04:36:29;;;;;;;13.57;10.40;;;;;;;14.34;100.00;100136.91;2071965;28;20211;-65
2023/04/01 04:37:29;;;;;;;13.23;9.60;;;;;;;14.35;100.00;100136.41;2078564;28;20203;-65
2023/04/01 04:38:30;;;;;;;14.00;10.03;;;;;;;14.31;100.00;100135.81;2079682;28;20246;-65
2023/04/01 04:39:30;;;;;;;14.70;10.07;;;;;;;14.15;100.00;100127.00;2079920;28;20196;-65
2023/04/01 04:40:31;;;;;;;12.60;8.90;;;;;;;13.93;100.00;100129.97;2083479;28;20197;-65
2023/04/01 04:41:31;;;;;;;15.37;10.43;;;;;;;13.86;100.00;100119.16;2085527;28;20183;-65
2023/04/01 04:42:32;;;;;;;13.53;10.33;;;;;;;13.93;100.00;100127.19;2079642;28;20179;-65
2023/04/01 04:43:32;;;;;;;14.80;10.93;;;;;;;13.97;100.00;100119.44;2079693;28;20618;-65
2023/04/01 04:44:33;;;;;;;13.47;10.40;;;;;;;14.00;100.00;100118.53;2080297;28;20322;-65
2023/04/01 04:45:33;;;;;;;11.70;9.70;;;;;;;14.06;100.00;100125.00;2079768;28;20203;-65
2023/04/01 04:46:34;;;;;;;13.47;10.20;;;;;;;14.07;100.00;100125.78;2079403;28;20256;-65